Gale Warning
Issued at: 5:00 PM TODAY , 05 April 2017
Gale Warning # 10 (Final)
For:

Gale Warning in PDF file





Monthly Climate Assessment and Outlook

Issued: 07 April 2017


ENSO Weekly Monitoring: La Nina Watch continues.. 
16 September 2016
updates shall be issued as appropriate.


Monthly Rainfall Forecast
RAINFALL FORECAST  (April - September 2017) 
UPDATED: 05 April 2017 (next update 26 May 2017)


Regional Rainfall Forecast
Issued: 05 April 2017
Valid for: April-September 2017
Farm Weather Forecast and Advisories
ISSUED              : 8AM, MONDAY, APRIL 24, 2017
VALID UNTIL      :  8AM, TUESDAY, APRIL 25, 2017
FWFA:  N0. 17-114


Ten-Day Regional Agri-Weather Information

DEKAD NO. 12 April 21 - 30, 2017

PHILIPPINE AGRI-WEATHER FORECAST

      The weather systems that are expected to affect the whole country within the ten-day period are ridge of high pressure area, easterlies and low pressure area.

Partly cloudy to cloudy skies with isolated rainshowers and thunderstorms mostly in the afternoon or evening are expected over the whole country during the early and the middle days of the forecast period. On the latter part of the period, a possible low pressure area will affect the eastern section of Visayas and Mindanao which will bring cloudy skies with light to moderate rains. The rest of the country will have partly cloudy to cloudy with isolated rainshowers and thunderstorms mostly in the afternoon or evening.

Winds blowing from the southeast to south will prevail over Luzon and Visayas and coming from the east to northeast over Mindanao. The whole archipelago will have slight to moderate seas during the early and middle days of the dekadal period. On the latter part of the dekad the seaboards of Northern Luzon, eastern Visayas and Mindanao will have moderate to occasionally rough seas while the rest of the country will have slight to moderate seas.

            The eastern and central equatorial Pacific is in neutral condition.


Seasonal Climate Outlook
Issued:  20 January 2017
FOR January - June 2017
PDF 




Astronomical Diary
Issue for April 2017
Lyrids Meteor, Jupiter, Saturn will be found at about 19 degrees above the east southeastern horizon and...




   PAGASA webmail  Learning Tools  Bidding 

  Training Activities  Vacancy  Research-and-Development

  Engineering  faqupdate  Publications 

TAF RPLL

241700Z 2418/2524 11008KT 9999 FEW025 TX35/2506Z TN26/2422Z TEMPO 2418/2424 12005KT FEW025 SCT100 TEMPO 2506/2512 13012KT FEW022CB SCT023 BKN250=

TAF RPVM

241700Z 2418/2524 05006KT 9999 FEW020 SCT300 TEMPO 2418/2424 06008KT FEW020 SCT100 TEMPO 2500/2506 08009KT FEW018CB FEW020=­

TAF RPLB

241700Z 2418/2518 06006KT 9999 FEW020 SCT300 TX35/2506Z TN26/2422Z TEMPO 2418/2424 VRB03KT 9000 –SHRA ­FEW018CB FEW020 BKN080=

TAF RPLC

241700Z 2418/2518 12008KT 9999 SCT020 BKN300 TX35/2506Z TN25/2421Z TEMPO 2418/2424 34010KT SCT020 BKN100=

TAF RPLI

241700Z 2418/2518 29008KT 9999 FEW019 SCT290 TEMPO 2418/2424 34004KT FEW018CB SCT019=

TAF RPVP

241700Z 2418/2518 09008KT 9999 FEW019 TEMPO 2418/2424 12004KT FEW017CB FEW020 SCT080 BKN250=

TAF RPVD

241700Z 2418/2518 07008KT 9999 FEW015  SCT220 TEMPO 2418/2424 09004KT FEW014CB SCT015 BKN080=

TAF RPMR

241700Z 2418/2518 18006KT 9999 FEW018 SCT080 TEMPO 2418/2424 14004KT 9000 –SHRA FEW018CB SCT020  BKN080=

TAF RPMD

241700Z 2418/2518 04006KT 9999 FEW016 SCT290 TEMPO 2418/2424 34004KT FEW015CB SCT090 BKN290=

TAF RPMZ

241700Z 2418/2518 27004KT 9999 FEW017 SCT100 BKN300 TEMPO 2418/2424 00000KT FEW017CB BKN100=

RPLL FORECAST TAKE-OFF CONDITION
TIME

(UTC)

WIND

(dddffKT)

TEMP

(°C)

QNH

(hPa)

TIME

(UTC)

WIND

(dddffKT)

TEMP

(°C)

QNH

(hPa)

1800

12005KT

27.0

1010.0

2100

12004KT

28.0

1011.0

1900

­VRB02KT

27.0

1010.5

2200

00000KT

28.0

1012.0

2000

11006KT

27.0

1011.0

2300

11008KT

29.0

1012.0

ISSUED AT NAIA AMSS-WD/PAGASA-DOST FOR 1700UTC 24 APRIL 2017

PREPARED BY:   CHH                                                            CHECKED BY:  MCM







PUBLIC WARNING 

It has come to the attention of the Office of the Administrator of PAGASA that a certain person has been using the name of Dr. Vicente B. Malano to solicit money from the contractors of PAGASA.

Dr. Malano wishes to inform the public that he has not authorized anyone to solicit money on his behalf and to warn everyone against dealing with unscrupulous activities of certain individuals.


payong pagasa on android The latest version of the official PAGASA app can now be downloaded on Google play store

Weather Division is now  ISO 9001:2008 Certified
Proof has been furnished by means of an audit that the requirements of ISO 9001:2008 are met.

Read more ...


PAGASA S&T RELEASE
PRESS STATEMENT
10 April 2017
               
SPECIAL WEATHER OUTLOOK FOR THE LENTEN SEASON


Starting today (April 10) until Maundy Thursday (April 13), warm and dry weather conditions associated with sunny weather will prevail over the entire archipelago, with chances of some isolated rainshowers or thunderstorms due to the Ridge of High Pressure Area (HPA) and Easterlies.

Read more ...
PAGASA S&T Release
PRESS STATEMENT
05 April 2017


TERMINATION OF THE NORTHEAST MONSOON

The resurgence of the Northeast Monsoon that affected the Northern and Central Luzon during the last few days has weakened.  Latest weather map analyses and numerical model outputs indicate
Read more ...